Gorgan, Iran
Current Conditions -  °F | °C
As of 2:00 PM on Sunday 23 Nov 2014 (Local Time) from OING Reporting Station
Light Rain Light Rain  
Wind Chill: 52°   Ceiling: 1000
Heat Index: 52°   Visibility: 1.5mi
Dew Point: 50°   Wind: 9mph
Humidity: 94%   Direction: 340°NNW
Pressure: 30"   Gusts: NA
Location:  36.83°N, 54.48°E
Report Text: OING 231100Z 34008KT 2500 -RA BR BKN010 FEW025CB OVC070 11/10 Q1016
Loading
Personal Weather Stations






























Interactive Weather Map New forecast layout! Learn more

10-Day Weather Forecast

Advertisements
Track Severe Weather on mobile